sensor_id;sensor_type;location;lat;lon;timestamp;pressure;altitude;pressure_sealevel;temperature;humidity
11712;BME280;5912;51.034;6.984;2023-01-04T00:01:28;100809.72;;;5.36;85.66
11712;BME280;5912;51.034;6.984;2023-01-04T00:03:54;100793.28;;;5.36;84.84
11712;BME280;5912;51.034;6.984;2023-01-04T00:06:20;100805.63;;;5.50;84.65
11712;BME280;5912;51.034;6.984;2023-01-04T00:08:45;100800.91;;;5.53;84.11
11712;BME280;5912;51.034;6.984;2023-01-04T00:11:14;100808.69;;;5.61;83.90
11712;BME280;5912;51.034;6.984;2023-01-04T00:13:41;100799.06;;;5.62;83.76
11712;BME280;5912;51.034;6.984;2023-01-04T00:16:11;100801.16;;;5.66;83.88
11712;BME280;5912;51.034;6.984;2023-01-04T00:18:37;100789.59;;;5.69;83.23
11712;BME280;5912;51.034;6.984;2023-01-04T00:21:14;100762.72;;;5.60;83.41
11712;BME280;5912;51.034;6.984;2023-01-04T00:23:41;100784.03;;;5.80;83.15
11712;BME280;5912;51.034;6.984;2023-01-04T00:26:15;100783.03;;;5.81;82.55
11712;BME280;5912;51.034;6.984;2023-01-04T00:28:41;100765.78;;;5.72;82.92
11712;BME280;5912;51.034;6.984;2023-01-04T00:31:09;100779.31;;;5.83;82.31
11712;BME280;5912;51.034;6.984;2023-01-04T00:33:35;100772.78;;;5.87;82.57
11712;BME280;5912;51.034;6.984;2023-01-04T00:36:09;100726.53;;;5.65;82.67
11712;BME280;5912;51.034;6.984;2023-01-04T00:38:36;100759.38;;;5.90;82.97
11712;BME280;5912;51.034;6.984;2023-01-04T00:41:02;100752.03;;;5.94;82.78
11712;BME280;5912;51.034;6.984;2023-01-04T00:43:28;100741.25;;;5.97;82.77
11712;BME280;5912;51.034;6.984;2023-01-04T00:45:54;100737.81;;;5.96;82.51
11712;BME280;5912;51.034;6.984;2023-01-04T00:48:20;100744.16;;;6.02;81.92
11712;BME280;5912;51.034;6.984;2023-01-04T00:50:46;100739.78;;;6.03;82.08
11712;BME280;5912;51.034;6.984;2023-01-04T00:53:13;100722.94;;;6.05;82.47
11712;BME280;5912;51.034;6.984;2023-01-04T00:55:39;100706.81;;;6.01;82.06
11712;BME280;5912;51.034;6.984;2023-01-04T00:58:05;100714.78;;;6.08;83.33
11712;BME280;5912;51.034;6.984;2023-01-04T01:00:31;100710.44;;;6.00;83.71
11712;BME280;5912;51.034;6.984;2023-01-04T01:02:56;100712.22;;;6.00;85.53
11712;BME280;5912;51.034;6.984;2023-01-04T01:05:22;100696.00;;;5.90;85.63
11712;BME280;5912;51.034;6.984;2023-01-04T01:07:47;100716.47;;;6.01;87.14
11712;BME280;5912;51.034;6.984;2023-01-04T01:10:13;100698.56;;;5.98;87.23
11712;BME280;5912;51.034;6.984;2023-01-04T01:12:38;100693.78;;;6.01;88.72
11712;BME280;5912;51.034;6.984;2023-01-04T01:15:04;100700.47;;;6.04;87.99
11712;BME280;5912;51.034;6.984;2023-01-04T01:17:30;100696.22;;;6.03;89.45
11712;BME280;5912;51.034;6.984;2023-01-04T01:19:55;100695.41;;;6.03;89.96
11712;BME280;5912;51.034;6.984;2023-01-04T01:22:20;100692.81;;;6.03;89.95
11712;BME280;5912;51.034;6.984;2023-01-04T01:24:46;100678.94;;;6.02;89.94
11712;BME280;5912;51.034;6.984;2023-01-04T01:27:11;100683.50;;;6.00;91.07
11712;BME280;5912;51.034;6.984;2023-01-04T01:29:37;100686.94;;;6.00;91.65
11712;BME280;5912;51.034;6.984;2023-01-04T01:32:02;100675.88;;;5.98;92.05
11712;BME280;5912;51.034;6.984;2023-01-04T01:34:28;100679.28;;;5.99;92.77
11712;BME280;5912;51.034;6.984;2023-01-04T01:36:54;100667.38;;;5.96;92.58
11712;BME280;5912;51.034;6.984;2023-01-04T01:39:20;100669.84;;;5.98;93.76
11712;BME280;5912;51.034;6.984;2023-01-04T01:41:45;100674.25;;;5.97;93.90
11712;BME280;5912;51.034;6.984;2023-01-04T01:46:49;100647.09;;;5.84;94.68
11712;BME280;5912;51.034;6.984;2023-01-04T01:49:31;100667.06;;;5.99;95.36
11712;BME280;5912;51.034;6.984;2023-01-04T01:52:01;100643.81;;;5.90;95.51
11712;BME280;5912;51.034;6.984;2023-01-04T01:54:32;100664.16;;;5.94;95.96
11712;BME280;5912;51.034;6.984;2023-01-04T01:56:59;100622.84;;;5.75;96.43
11712;BME280;5912;51.034;6.984;2023-01-04T01:59:27;100653.91;;;5.93;96.71
11712;BME280;5912;51.034;6.984;2023-01-04T02:01:53;100640.03;;;5.92;96.95
11712;BME280;5912;51.034;6.984;2023-01-04T02:04:19;100644.44;;;5.92;98.15
11712;BME280;5912;51.034;6.984;2023-01-04T02:06:50;100642.16;;;5.89;98.08
11712;BME280;5912;51.034;6.984;2023-01-04T02:09:18;100644.78;;;5.89;98.73
11712;BME280;5912;51.034;6.984;2023-01-04T02:11:44;100627.88;;;5.85;99.38
11712;BME280;5912;51.034;6.984;2023-01-04T02:14:11;100633.09;;;5.85;99.73
11712;BME280;5912;51.034;6.984;2023-01-04T02:19:33;100625.25;;;5.85;100.00
11712;BME280;5912;51.034;6.984;2023-01-04T02:41:33;100594.13;;;5.83;100.00
11712;BME280;5912;51.034;6.984;2023-01-04T02:44:15;100604.75;;;5.82;100.00
11712;BME280;5912;51.034;6.984;2023-01-04T02:47:15;100564.34;;;5.70;100.00
11712;BME280;5912;51.034;6.984;2023-01-04T02:49:41;100581.56;;;5.79;100.00
11712;BME280;5912;51.034;6.984;2023-01-04T02:52:25;100582.19;;;5.81;100.00
11712;BME280;5912;51.034;6.984;2023-01-04T02:54:54;100575.88;;;5.83;100.00
11712;BME280;5912;51.034;6.984;2023-01-04T02:57:31;100571.63;;;5.82;100.00
11712;BME280;5912;51.034;6.984;2023-01-04T03:02:47;100565.09;;;5.86;100.00
11712;BME280;5912;51.034;6.984;2023-01-04T03:05:42;100555.31;;;5.88;100.00
11712;BME280;5912;51.034;6.984;2023-01-04T03:08:47;100543.09;;;5.81;100.00
11712;BME280;5912;51.034;6.984;2023-01-04T03:11:16;100548.91;;;5.91;100.00
11712;BME280;5912;51.034;6.984;2023-01-04T03:14:11;100550.69;;;5.90;100.00
11712;BME280;5912;51.034;6.984;2023-01-04T03:16:41;100542.09;;;5.90;100.00
11712;BME280;5912;51.034;6.984;2023-01-04T03:19:09;100546.94;;;5.93;100.00
11712;BME280;5912;51.034;6.984;2023-01-04T03:21:37;100536.50;;;5.93;100.00
11712;BME280;5912;51.034;6.984;2023-01-04T03:24:05;100534.19;;;5.98;100.00
11712;BME280;5912;51.034;6.984;2023-01-04T03:27:00;100510.53;;;5.99;100.00
11712;BME280;5912;51.034;6.984;2023-01-04T03:29:53;100484.44;;;5.99;100.00
11712;BME280;5912;51.034;6.984;2023-01-04T03:32:55;100520.03;;;6.44;98.47
11712;BME280;5912;51.034;6.984;2023-01-04T03:35:44;100491.16;;;6.46;96.59
11712;BME280;5912;51.034;6.984;2023-01-04T03:41:11;100504.91;;;6.83;94.87
11712;BME280;5912;51.034;6.984;2023-01-04T03:46:52;100496.41;;;6.96;94.41
11712;BME280;5912;51.034;6.984;2023-01-04T03:49:44;100503.16;;;7.05;93.74
11712;BME280;5912;51.034;6.984;2023-01-04T03:52:15;100500.78;;;7.10;93.23
11712;BME280;5912;51.034;6.984;2023-01-04T03:54:44;100493.97;;;7.09;93.31
11712;BME280;5912;51.034;6.984;2023-01-04T03:57:11;100495.38;;;7.11;93.00
11712;BME280;5912;51.034;6.984;2023-01-04T03:59:51;100492.84;;;7.18;92.90
11712;BME280;5912;51.034;6.984;2023-01-04T04:02:22;100496.09;;;7.20;93.20
11712;BME280;5912;51.034;6.984;2023-01-04T04:04:48;100483.66;;;7.22;92.16
11712;BME280;5912;51.034;6.984;2023-01-04T04:07:33;100483.47;;;7.23;93.16
11712;BME280;5912;51.034;6.984;2023-01-04T04:10:17;100474.06;;;7.29;92.05
11712;BME280;5912;51.034;6.984;2023-01-04T04:12:42;100472.91;;;7.31;91.62
11712;BME280;5912;51.034;6.984;2023-01-04T04:15:08;100466.91;;;7.37;92.56
11712;BME280;5912;51.034;6.984;2023-01-04T04:17:34;100463.22;;;7.32;92.23
11712;BME280;5912;51.034;6.984;2023-01-04T04:19:59;100457.81;;;7.33;92.38
11712;BME280;5912;51.034;6.984;2023-01-04T04:22:24;100454.81;;;7.36;92.88
11712;BME280;5912;51.034;6.984;2023-01-04T04:24:50;100457.44;;;7.36;92.80
11712;BME280;5912;51.034;6.984;2023-01-04T04:27:15;100448.34;;;7.32;93.00
11712;BME280;5912;51.034;6.984;2023-01-04T04:29:40;100463.59;;;7.29;92.79
11712;BME280;5912;51.034;6.984;2023-01-04T04:32:06;100443.25;;;7.24;93.80
11712;BME280;5912;51.034;6.984;2023-01-04T04:34:31;100452.97;;;7.30;93.73
11712;BME280;5912;51.034;6.984;2023-01-04T04:36:57;100461.81;;;7.29;94.62
11712;BME280;5912;51.034;6.984;2023-01-04T04:39:22;100459.13;;;7.23;94.31
11712;BME280;5912;51.034;6.984;2023-01-04T04:41:48;100460.66;;;7.17;93.76
11712;BME280;5912;51.034;6.984;2023-01-04T04:44:18;100452.28;;;7.22;93.92
11712;BME280;5912;51.034;6.984;2023-01-04T04:46:45;100458.75;;;7.26;93.54
11712;BME280;5912;51.034;6.984;2023-01-04T04:49:11;100450.91;;;7.26;93.82
11712;BME280;5912;51.034;6.984;2023-01-04T04:51:38;100447.47;;;7.25;93.27
11712;BME280;5912;51.034;6.984;2023-01-04T04:54:05;100432.03;;;7.30;93.42
11712;BME280;5912;51.034;6.984;2023-01-04T04:56:31;100442.31;;;7.32;93.04
11712;BME280;5912;51.034;6.984;2023-01-04T04:58:57;100434.66;;;7.30;92.85
11712;BME280;5912;51.034;6.984;2023-01-04T05:01:22;100423.16;;;7.25;93.52
11712;BME280;5912;51.034;6.984;2023-01-04T05:03:48;100441.44;;;7.46;92.86
11712;BME280;5912;51.034;6.984;2023-01-04T05:06:13;100439.81;;;7.45;92.95
11712;BME280;5912;51.034;6.984;2023-01-04T05:08:38;100437.66;;;7.48;93.05
11712;BME280;5912;51.034;6.984;2023-01-04T05:11:09;100428.19;;;7.47;93.27
11712;BME280;5912;51.034;6.984;2023-01-04T05:13:35;100432.41;;;7.48;92.57
11712;BME280;5912;51.034;6.984;2023-01-04T05:16:01;100433.25;;;7.49;92.39
11712;BME280;5912;51.034;6.984;2023-01-04T05:18:28;100421.38;;;7.53;93.12
11712;BME280;5912;51.034;6.984;2023-01-04T05:20:53;100409.63;;;7.42;92.13
11712;BME280;5912;51.034;6.984;2023-01-04T05:23:20;100424.19;;;7.51;92.05
11712;BME280;5912;51.034;6.984;2023-01-04T05:25:50;100423.25;;;7.59;92.03
11712;BME280;5912;51.034;6.984;2023-01-04T05:28:17;100412.00;;;7.59;92.23
11712;BME280;5912;51.034;6.984;2023-01-04T05:30:43;100410.97;;;7.60;92.14
11712;BME280;5912;51.034;6.984;2023-01-04T05:33:28;100399.13;;;7.64;91.89
11712;BME280;5912;51.034;6.984;2023-01-04T05:35:55;100413.22;;;7.63;91.64
11712;BME280;5912;51.034;6.984;2023-01-04T05:38:21;100402.31;;;7.59;92.08
11712;BME280;5912;51.034;6.984;2023-01-04T05:40:47;100396.31;;;7.59;91.15
11712;BME280;5912;51.034;6.984;2023-01-04T05:43:14;100414.09;;;7.70;91.38
11712;BME280;5912;51.034;6.984;2023-01-04T05:45:42;100405.84;;;7.73;90.90
11712;BME280;5912;51.034;6.984;2023-01-04T05:48:07;100396.38;;;7.72;91.32
11712;BME280;5912;51.034;6.984;2023-01-04T05:50:33;100394.78;;;7.71;90.34
11712;BME280;5912;51.034;6.984;2023-01-04T05:52:59;100399.22;;;7.77;90.17
11712;BME280;5912;51.034;6.984;2023-01-04T05:55:24;100387.59;;;7.79;90.09
11712;BME280;5912;51.034;6.984;2023-01-04T05:57:50;100384.34;;;7.77;89.67
11712;BME280;5912;51.034;6.984;2023-01-04T06:00:15;100373.97;;;7.90;89.89
11712;BME280;5912;51.034;6.984;2023-01-04T06:02:42;100374.38;;;7.94;89.60
11712;BME280;5912;51.034;6.984;2023-01-04T06:05:09;100367.16;;;7.96;89.40
11712;BME280;5912;51.034;6.984;2023-01-04T06:07:35;100367.72;;;7.91;89.66
11712;BME280;5912;51.034;6.984;2023-01-04T06:10:01;100366.16;;;7.97;89.66
11712;BME280;5912;51.034;6.984;2023-01-04T06:12:26;100361.53;;;7.99;89.12
11712;BME280;5912;51.034;6.984;2023-01-04T06:14:51;100361.75;;;8.04;89.27
11712;BME280;5912;51.034;6.984;2023-01-04T06:17:17;100320.59;;;7.85;89.48
11712;BME280;5912;51.034;6.984;2023-01-04T06:19:42;100341.84;;;8.03;89.38
11712;BME280;5912;51.034;6.984;2023-01-04T06:22:08;100337.81;;;8.07;89.28
11712;BME280;5912;51.034;6.984;2023-01-04T06:24:33;100337.38;;;8.03;88.74
11712;BME280;5912;51.034;6.984;2023-01-04T06:27:00;100338.63;;;8.07;89.22
11712;BME280;5912;51.034;6.984;2023-01-04T06:29:25;100342.47;;;8.05;89.20
11712;BME280;5912;51.034;6.984;2023-01-04T06:31:51;100338.63;;;8.07;89.46
11712;BME280;5912;51.034;6.984;2023-01-04T06:34:16;100331.59;;;8.08;89.16
11712;BME280;5912;51.034;6.984;2023-01-04T06:36:42;100350.94;;;8.13;89.27
11712;BME280;5912;51.034;6.984;2023-01-04T06:39:07;100335.44;;;8.12;89.36
11712;BME280;5912;51.034;6.984;2023-01-04T06:41:34;100321.34;;;8.13;89.41
11712;BME280;5912;51.034;6.984;2023-01-04T06:43:59;100331.81;;;8.13;89.22
11712;BME280;5912;51.034;6.984;2023-01-04T06:46:25;100328.16;;;8.07;89.65
11712;BME280;5912;51.034;6.984;2023-01-04T06:48:50;100323.78;;;8.14;89.30
11712;BME280;5912;51.034;6.984;2023-01-04T06:51:19;100321.63;;;8.24;88.89
11712;BME280;5912;51.034;6.984;2023-01-04T06:53:45;100317.81;;;8.27;89.40
11712;BME280;5912;51.034;6.984;2023-01-04T06:56:11;100315.78;;;8.29;89.02
11712;BME280;5912;51.034;6.984;2023-01-04T06:58:36;100322.03;;;8.28;89.49
11712;BME280;5912;51.034;6.984;2023-01-04T07:01:02;100322.66;;;8.30;89.02
11712;BME280;5912;51.034;6.984;2023-01-04T07:03:28;100326.47;;;8.34;88.81
11712;BME280;5912;51.034;6.984;2023-01-04T07:05:53;100327.69;;;8.31;89.10
11712;BME280;5912;51.034;6.984;2023-01-04T07:08:19;100304.03;;;8.18;88.80
11712;BME280;5912;51.034;6.984;2023-01-04T07:10:45;100330.34;;;8.38;88.69
11712;BME280;5912;51.034;6.984;2023-01-04T07:13:10;100341.41;;;8.40;88.48
11712;BME280;5912;51.034;6.984;2023-01-04T07:15:36;100336.38;;;8.38;88.90
11712;BME280;5912;51.034;6.984;2023-01-04T07:18:02;100308.31;;;8.26;89.26
11712;BME280;5912;51.034;6.984;2023-01-04T07:20:27;100309.97;;;8.27;89.40
11712;BME280;5912;51.034;6.984;2023-01-04T07:22:53;100321.66;;;8.37;89.53
11712;BME280;5912;51.034;6.984;2023-01-04T07:25:18;100316.84;;;8.41;89.45
11712;BME280;5912;51.034;6.984;2023-01-04T07:27:44;100320.47;;;8.40;89.22
11712;BME280;5912;51.034;6.984;2023-01-04T07:30:10;100319.47;;;8.41;89.49
11712;BME280;5912;51.034;6.984;2023-01-04T07:32:35;100313.44;;;8.47;89.26
11712;BME280;5912;51.034;6.984;2023-01-04T07:35:01;100307.00;;;8.43;89.28
11712;BME280;5912;51.034;6.984;2023-01-04T07:37:27;100311.03;;;8.52;89.14
11712;BME280;5912;51.034;6.984;2023-01-04T07:39:52;100321.75;;;8.57;88.87
11712;BME280;5912;51.034;6.984;2023-01-04T07:42:17;100303.38;;;8.50;88.93
11712;BME280;5912;51.034;6.984;2023-01-04T07:44:44;100303.97;;;8.59;89.37
11712;BME280;5912;51.034;6.984;2023-01-04T07:47:11;100292.50;;;8.53;88.89
11712;BME280;5912;51.034;6.984;2023-01-04T07:49:36;100296.53;;;8.56;88.73
11712;BME280;5912;51.034;6.984;2023-01-04T07:52:02;100291.88;;;8.45;88.76
11712;BME280;5912;51.034;6.984;2023-01-04T07:54:27;100300.78;;;8.63;88.47
11712;BME280;5912;51.034;6.984;2023-01-04T07:56:53;100308.66;;;8.63;88.08
11712;BME280;5912;51.034;6.984;2023-01-04T07:59:19;100305.03;;;8.71;87.84
11712;BME280;5912;51.034;6.984;2023-01-04T08:01:46;100319.16;;;8.70;87.87
11712;BME280;5912;51.034;6.984;2023-01-04T08:04:12;100317.53;;;8.75;87.51
11712;BME280;5912;51.034;6.984;2023-01-04T08:06:39;100317.34;;;8.77;87.19
11712;BME280;5912;51.034;6.984;2023-01-04T08:09:05;100283.25;;;8.51;87.50
11712;BME280;5912;51.034;6.984;2023-01-04T08:11:32;100314.31;;;8.80;87.34
11712;BME280;5912;51.034;6.984;2023-01-04T08:13:58;100318.34;;;8.76;87.18
11712;BME280;5912;51.034;6.984;2023-01-04T08:16:31;100321.78;;;8.83;87.15
11712;BME280;5912;51.034;6.984;2023-01-04T08:19:01;100313.13;;;8.82;87.43
11712;BME280;5912;51.034;6.984;2023-01-04T08:21:29;100320.56;;;8.79;88.12
11712;BME280;5912;51.034;6.984;2023-01-04T08:23:55;100307.03;;;8.69;88.39
11712;BME280;5912;51.034;6.984;2023-01-04T08:26:21;100303.59;;;8.68;88.37
11712;BME280;5912;51.034;6.984;2023-01-04T08:28:47;100312.47;;;8.67;88.72
11712;BME280;5912;51.034;6.984;2023-01-04T08:31:18;100327.41;;;8.80;88.47
11712;BME280;5912;51.034;6.984;2023-01-04T08:33:44;100309.69;;;8.75;88.51
11712;BME280;5912;51.034;6.984;2023-01-04T08:36:25;100313.13;;;8.82;88.69
11712;BME280;5912;51.034;6.984;2023-01-04T08:38:52;100322.38;;;8.85;88.64
11712;BME280;5912;51.034;6.984;2023-01-04T08:41:19;100316.94;;;8.86;88.75
11712;BME280;5912;51.034;6.984;2023-01-04T08:43:44;100322.00;;;8.88;88.87
11712;BME280;5912;51.034;6.984;2023-01-04T08:46:11;100315.13;;;8.87;88.86
11712;BME280;5912;51.034;6.984;2023-01-04T08:48:37;100315.56;;;8.90;88.79
11712;BME280;5912;51.034;6.984;2023-01-04T08:51:08;100310.31;;;8.97;88.07
11712;BME280;5912;51.034;6.984;2023-01-04T08:53:34;100311.53;;;9.01;87.88
11712;BME280;5912;51.034;6.984;2023-01-04T08:56:00;100299.03;;;9.03;87.56
11712;BME280;5912;51.034;6.984;2023-01-04T08:58:27;100301.44;;;9.11;87.40
11712;BME280;5912;51.034;6.984;2023-01-04T09:01:05;100302.66;;;9.15;86.90
11712;BME280;5912;51.034;6.984;2023-01-04T09:03:31;100303.06;;;9.12;87.00
11712;BME280;5912;51.034;6.984;2023-01-04T09:06:05;100293.78;;;9.16;86.58
11712;BME280;5912;51.034;6.984;2023-01-04T09:08:34;100297.41;;;9.15;86.67
11712;BME280;5912;51.034;6.984;2023-01-04T09:11:05;100293.19;;;9.21;86.33
11712;BME280;5912;51.034;6.984;2023-01-04T09:13:32;100295.19;;;9.25;86.01
11712;BME280;5912;51.034;6.984;2023-01-04T09:16:00;100297.00;;;9.25;85.91
11712;BME280;5912;51.034;6.984;2023-01-04T09:18:26;100289.34;;;9.23;85.93
11712;BME280;5912;51.034;6.984;2023-01-04T09:20:51;100273.81;;;9.15;85.35
11712;BME280;5912;51.034;6.984;2023-01-04T09:23:16;100301.44;;;9.31;85.43
11712;BME280;5912;51.034;6.984;2023-01-04T09:25:42;100303.84;;;9.32;85.54
11712;BME280;5912;51.034;6.984;2023-01-04T09:28:07;100292.78;;;9.30;85.31
11712;BME280;5912;51.034;6.984;2023-01-04T09:30:32;100297.59;;;9.33;85.50
11712;BME280;5912;51.034;6.984;2023-01-04T09:32:58;100282.91;;;9.19;85.72
11712;BME280;5912;51.034;6.984;2023-01-04T09:35:23;100291.13;;;9.36;86.08
11712;BME280;5912;51.034;6.984;2023-01-04T09:37:49;100289.72;;;9.40;85.87
11712;BME280;5912;51.034;6.984;2023-01-04T09:40:20;100287.91;;;9.40;85.88
11712;BME280;5912;51.034;6.984;2023-01-04T09:42:48;100287.13;;;9.40;86.08
11712;BME280;5912;51.034;6.984;2023-01-04T09:45:19;100272.38;;;9.32;85.63
11712;BME280;5912;51.034;6.984;2023-01-04T09:47:53;100287.06;;;9.53;85.29
11712;BME280;5912;51.034;6.984;2023-01-04T09:50:52;100284.22;;;9.61;85.13
11712;BME280;5912;51.034;6.984;2023-01-04T09:53:37;100287.44;;;9.69;84.82
11712;BME280;5912;51.034;6.984;2023-01-04T09:56:21;100283.22;;;9.75;84.70
11712;BME280;5912;51.034;6.984;2023-01-04T09:58:47;100270.25;;;9.80;84.24
11712;BME280;5912;51.034;6.984;2023-01-04T10:01:19;100271.03;;;9.87;84.13
11712;BME280;5912;51.034;6.984;2023-01-04T10:04:06;100263.78;;;9.89;83.93
11712;BME280;5912;51.034;6.984;2023-01-04T10:06:37;100269.44;;;9.86;83.60
11712;BME280;5912;51.034;6.984;2023-01-04T10:09:08;100266.81;;;9.86;83.44
11712;BME280;5912;51.034;6.984;2023-01-04T10:12:04;100266.59;;;9.87;83.82
11712;BME280;5912;51.034;6.984;2023-01-04T10:17:13;100251.69;;;9.81;84.01
11712;BME280;5912;51.034;6.984;2023-01-04T10:22:40;100247.22;;;9.82;84.73
11712;BME280;5912;51.034;6.984;2023-01-04T10:25:29;100250.47;;;9.84;84.93
11712;BME280;5912;51.034;6.984;2023-01-04T10:31:13;100256.94;;;9.81;84.35
11712;BME280;5912;51.034;6.984;2023-01-04T10:33:41;100258.56;;;9.76;84.57
11712;BME280;5912;51.034;6.984;2023-01-04T10:36:17;100245.41;;;9.82;84.96
11712;BME280;5912;51.034;6.984;2023-01-04T10:38:43;100249.66;;;9.77;86.65
11712;BME280;5912;51.034;6.984;2023-01-04T10:41:12;100256.16;;;9.68;87.65
11712;BME280;5912;51.034;6.984;2023-01-04T10:44:02;100241.84;;;9.64;88.00
11712;BME280;5912;51.034;6.984;2023-01-04T10:46:41;100235.81;;;9.57;88.17
11712;BME280;5912;51.034;6.984;2023-01-04T10:49:14;100243.28;;;9.53;88.67
11712;BME280;5912;51.034;6.984;2023-01-04T10:52:02;100243.69;;;9.50;89.47
11712;BME280;5912;51.034;6.984;2023-01-04T10:57:58;100241.06;;;9.50;90.48
11712;BME280;5912;51.034;6.984;2023-01-04T11:00:38;100229.97;;;9.48;90.58
11712;BME280;5912;51.034;6.984;2023-01-04T11:03:37;100227.34;;;9.48;91.53
11712;BME280;5912;51.034;6.984;2023-01-04T11:08:49;100216.66;;;9.50;91.96
11712;BME280;5912;51.034;6.984;2023-01-04T11:11:36;100202.13;;;9.47;93.18
11712;BME280;5912;51.034;6.984;2023-01-04T11:14:05;100209.41;;;9.45;93.59
11712;BME280;5912;51.034;6.984;2023-01-04T11:16:30;100205.78;;;9.46;93.43
11712;BME280;5912;51.034;6.984;2023-01-04T11:18:57;100204.16;;;9.45;93.55
11712;BME280;5912;51.034;6.984;2023-01-04T11:21:26;100210.63;;;9.49;93.79
11712;BME280;5912;51.034;6.984;2023-01-04T11:23:58;100215.84;;;9.49;93.59
11712;BME280;5912;51.034;6.984;2023-01-04T11:26:30;100178.78;;;9.26;93.61
11712;BME280;5912;51.034;6.984;2023-01-04T11:29:05;100198.50;;;9.42;94.25
11712;BME280;5912;51.034;6.984;2023-01-04T11:34:15;100197.91;;;9.46;94.86
11712;BME280;5912;51.034;6.984;2023-01-04T11:36:43;100195.06;;;9.48;94.70
11712;BME280;5912;51.034;6.984;2023-01-04T11:39:20;100182.97;;;9.47;94.25
11712;BME280;5912;51.034;6.984;2023-01-04T11:42:03;100175.28;;;9.52;93.79
11712;BME280;5912;51.034;6.984;2023-01-04T11:44:32;100159.38;;;9.40;93.71
11712;BME280;5912;51.034;6.984;2023-01-04T11:47:16;100153.25;;;9.53;93.38
11712;BME280;5912;51.034;6.984;2023-01-04T11:49:43;100172.03;;;9.56;93.02
11712;BME280;5912;51.034;6.984;2023-01-04T11:52:31;100168.41;;;9.57;93.18
11712;BME280;5912;51.034;6.984;2023-01-04T11:57:40;100162.13;;;9.58;93.42
11712;BME280;5912;51.034;6.984;2023-01-04T12:00:09;100162.13;;;9.58;93.17
11712;BME280;5912;51.034;6.984;2023-01-04T12:02:34;100160.91;;;9.61;93.46
11712;BME280;5912;51.034;6.984;2023-01-04T12:05:00;100165.38;;;9.60;93.65
11712;BME280;5912;51.034;6.984;2023-01-04T12:07:32;100170.41;;;9.62;93.30
11712;BME280;5912;51.034;6.984;2023-01-04T12:09:59;100150.59;;;9.66;92.80
11712;BME280;5912;51.034;6.984;2023-01-04T12:12:32;100158.03;;;9.69;93.33
11712;BME280;5912;51.034;6.984;2023-01-04T12:15:13;100170.38;;;9.68;92.96
11712;BME280;5912;51.034;6.984;2023-01-04T12:18:03;100158.66;;;9.71;93.09
11712;BME280;5912;51.034;6.984;2023-01-04T12:20:30;100155.19;;;9.77;92.88
11712;BME280;5912;51.034;6.984;2023-01-04T12:22:55;100152.31;;;9.85;91.85
11712;BME280;5912;51.034;6.984;2023-01-04T12:25:44;100154.47;;;9.94;91.43
11712;BME280;5912;51.034;6.984;2023-01-04T12:28:35;100118.78;;;9.87;91.16
11712;BME280;5912;51.034;6.984;2023-01-04T12:33:46;100127.06;;;10.21;90.52
11712;BME280;5912;51.034;6.984;2023-01-04T12:36:17;100115.78;;;10.21;89.89
11712;BME280;5912;51.034;6.984;2023-01-04T12:39:03;100137.88;;;10.38;89.41
11712;BME280;5912;51.034;6.984;2023-01-04T12:43:57;100135.16;;;10.51;88.04
11712;BME280;5912;51.034;6.984;2023-01-04T12:54:45;100126.50;;;10.69;89.26
11712;BME280;5912;51.034;6.984;2023-01-04T13:00:00;100108.53;;;10.66;88.93
11712;BME280;5912;51.034;6.984;2023-01-04T13:07:44;100111.56;;;10.63;88.77
11712;BME280;5912;51.034;6.984;2023-01-04T13:12:55;100100.50;;;10.61;89.22
11712;BME280;5912;51.034;6.984;2023-01-04T13:17:59;100080.81;;;10.45;88.75
11712;BME280;5912;51.034;6.984;2023-01-04T13:20:26;100104.44;;;10.70;89.11
11712;BME280;5912;51.034;6.984;2023-01-04T13:22:56;100104.06;;;10.66;88.83
11712;BME280;5912;51.034;6.984;2023-01-04T13:25:23;100112.97;;;10.65;89.09
11712;BME280;5912;51.034;6.984;2023-01-04T13:28:01;100100.66;;;10.66;89.60
11712;BME280;5912;51.034;6.984;2023-01-04T13:30:33;100097.50;;;10.57;90.06
11712;BME280;5912;51.034;6.984;2023-01-04T13:33:10;100094.63;;;10.59;90.36
11712;BME280;5912;51.034;6.984;2023-01-04T13:35:38;100114.63;;;10.60;91.19
11712;BME280;5912;51.034;6.984;2023-01-04T13:38:13;100111.00;;;10.61;91.26
11712;BME280;5912;51.034;6.984;2023-01-04T13:40:45;100101.50;;;10.60;91.08
11712;BME280;5912;51.034;6.984;2023-01-04T13:43:34;100105.75;;;10.61;91.25
11712;BME280;5912;51.034;6.984;2023-01-04T13:46:20;100113.47;;;10.56;91.57
11712;BME280;5912;51.034;6.984;2023-01-04T13:48:48;100096.25;;;10.60;91.17
11712;BME280;5912;51.034;6.984;2023-01-04T13:51:26;100099.84;;;10.65;91.19
11712;BME280;5912;51.034;6.984;2023-01-04T13:53:59;100092.59;;;10.61;91.15
11712;BME280;5912;51.034;6.984;2023-01-04T13:56:27;100085.00;;;10.71;90.89
11712;BME280;5912;51.034;6.984;2023-01-04T13:59:08;100083.34;;;10.76;90.43
11712;BME280;5912;51.034;6.984;2023-01-04T14:01:39;100092.56;;;10.85;90.34
11712;BME280;5912;51.034;6.984;2023-01-04T14:04:14;100091.97;;;10.83;89.54
11712;BME280;5912;51.034;6.984;2023-01-04T14:06:47;100086.84;;;10.88;89.59
11712;BME280;5912;51.034;6.984;2023-01-04T14:09:20;100083.56;;;10.93;89.57
11712;BME280;5912;51.034;6.984;2023-01-04T14:11:50;100088.63;;;10.94;89.77
11712;BME280;5912;51.034;6.984;2023-01-04T14:19:51;100075.50;;;10.94;88.79
11712;BME280;5912;51.034;6.984;2023-01-04T14:38:37;100076.66;;;10.98;88.94
11712;BME280;5912;51.034;6.984;2023-01-04T14:46:27;100081.09;;;10.98;88.54
11712;BME280;5912;51.034;6.984;2023-01-04T14:48:53;100094.09;;;10.93;88.95
11712;BME280;5912;51.034;6.984;2023-01-04T14:51:23;100071.53;;;11.03;88.24
11712;BME280;5912;51.034;6.984;2023-01-04T14:53:50;100073.41;;;10.96;88.72
11712;BME280;5912;51.034;6.984;2023-01-04T14:56:17;100083.94;;;10.96;88.63
11712;BME280;5912;51.034;6.984;2023-01-04T14:58:44;100084.63;;;11.10;88.41
11712;BME280;5912;51.034;6.984;2023-01-04T15:01:11;100083.78;;;10.91;88.50
11712;BME280;5912;51.034;6.984;2023-01-04T15:03:36;100085.19;;;10.94;88.35
11712;BME280;5912;51.034;6.984;2023-01-04T15:06:03;100088.41;;;10.96;88.34
11712;BME280;5912;51.034;6.984;2023-01-04T15:08:29;100079.94;;;10.94;88.59
11712;BME280;5912;51.034;6.984;2023-01-04T15:10:54;100098.88;;;11.02;88.68
11712;BME280;5912;51.034;6.984;2023-01-04T15:13:20;100098.50;;;10.99;88.44